sensor_id;sensor_type;location;lat;lon;timestamp;P1;durP1;ratioP1;P2;durP2;ratioP2
52946;SDS011;45776;40.400;17.260;2022-11-15T00:00:31;12.60;;;5.95;;
52946;SDS011;45776;40.400;17.260;2022-11-15T00:02:56;14.85;;;7.45;;
52946;SDS011;45776;40.400;17.260;2022-11-15T00:05:22;17.05;;;9.85;;
52946;SDS011;45776;40.400;17.260;2022-11-15T00:07:47;16.77;;;10.55;;
52946;SDS011;45776;40.400;17.260;2022-11-15T00:10:12;19.73;;;10.77;;
52946;SDS011;45776;40.400;17.260;2022-11-15T00:12:38;17.83;;;11.02;;
52946;SDS011;45776;40.400;17.260;2022-11-15T00:15:03;16.92;;;10.82;;
52946;SDS011;45776;40.400;17.260;2022-11-15T00:17:29;18.90;;;9.80;;
52946;SDS011;45776;40.400;17.260;2022-11-15T00:19:54;21.50;;;10.73;;
52946;SDS011;45776;40.400;17.260;2022-11-15T00:22:20;22.98;;;10.52;;
52946;SDS011;45776;40.400;17.260;2022-11-15T00:24:45;18.75;;;11.85;;
52946;SDS011;45776;40.400;17.260;2022-11-15T00:27:10;16.88;;;10.80;;
52946;SDS011;45776;40.400;17.260;2022-11-15T00:29:35;18.45;;;10.75;;
52946;SDS011;45776;40.400;17.260;2022-11-15T00:32:03;18.80;;;11.45;;
52946;SDS011;45776;40.400;17.260;2022-11-15T00:34:28;17.35;;;10.60;;
52946;SDS011;45776;40.400;17.260;2022-11-15T00:36:54;18.15;;;11.25;;
52946;SDS011;45776;40.400;17.260;2022-11-15T00:39:19;19.27;;;10.55;;
52946;SDS011;45776;40.400;17.260;2022-11-15T00:41:44;21.02;;;11.52;;
52946;SDS011;45776;40.400;17.260;2022-11-15T00:44:10;19.00;;;11.35;;
52946;SDS011;45776;40.400;17.260;2022-11-15T00:46:35;21.02;;;11.10;;
52946;SDS011;45776;40.400;17.260;2022-11-15T00:49:00;18.52;;;10.75;;
52946;SDS011;45776;40.400;17.260;2022-11-15T00:51:26;19.58;;;10.77;;
52946;SDS011;45776;40.400;17.260;2022-11-15T00:53:51;18.55;;;10.90;;
52946;SDS011;45776;40.400;17.260;2022-11-15T00:56:16;20.25;;;12.07;;
52946;SDS011;45776;40.400;17.260;2022-11-15T00:58:41;24.75;;;12.15;;
52946;SDS011;45776;40.400;17.260;2022-11-15T01:01:07;22.02;;;11.88;;
52946;SDS011;45776;40.400;17.260;2022-11-15T01:03:34;24.15;;;12.60;;
52946;SDS011;45776;40.400;17.260;2022-11-15T01:05:59;20.30;;;12.02;;
52946;SDS011;45776;40.400;17.260;2022-11-15T01:08:25;18.45;;;11.85;;
52946;SDS011;45776;40.400;17.260;2022-11-15T01:10:50;17.08;;;11.20;;
52946;SDS011;45776;40.400;17.260;2022-11-15T01:13:15;18.55;;;11.50;;
52946;SDS011;45776;40.400;17.260;2022-11-15T01:15:41;18.00;;;10.70;;
52946;SDS011;45776;40.400;17.260;2022-11-15T01:18:06;19.05;;;10.88;;
52946;SDS011;45776;40.400;17.260;2022-11-15T01:20:31;15.27;;;10.15;;
52946;SDS011;45776;40.400;17.260;2022-11-15T01:22:57;19.55;;;11.65;;
52946;SDS011;45776;40.400;17.260;2022-11-15T01:25:22;16.17;;;9.43;;
52946;SDS011;45776;40.400;17.260;2022-11-15T01:27:47;16.52;;;9.30;;
52946;SDS011;45776;40.400;17.260;2022-11-15T01:30:13;16.70;;;9.57;;
52946;SDS011;45776;40.400;17.260;2022-11-15T01:32:38;19.63;;;8.43;;
52946;SDS011;45776;40.400;17.260;2022-11-15T01:35:03;17.42;;;9.48;;
52946;SDS011;45776;40.400;17.260;2022-11-15T01:37:29;20.20;;;10.05;;
52946;SDS011;45776;40.400;17.260;2022-11-15T01:39:54;18.67;;;10.45;;
52946;SDS011;45776;40.400;17.260;2022-11-15T01:42:19;17.27;;;10.10;;
52946;SDS011;45776;40.400;17.260;2022-11-15T01:44:48;20.10;;;11.18;;
52946;SDS011;45776;40.400;17.260;2022-11-15T01:47:24;17.20;;;10.52;;
52946;SDS011;45776;40.400;17.260;2022-11-15T01:52:20;17.73;;;9.73;;
52946;SDS011;45776;40.400;17.260;2022-11-15T01:54:47;21.95;;;10.10;;
52946;SDS011;45776;40.400;17.260;2022-11-15T01:57:13;17.45;;;10.15;;
52946;SDS011;45776;40.400;17.260;2022-11-15T01:59:39;16.75;;;9.73;;
52946;SDS011;45776;40.400;17.260;2022-11-15T02:02:06;17.40;;;10.30;;
52946;SDS011;45776;40.400;17.260;2022-11-15T02:04:32;18.35;;;10.27;;
52946;SDS011;45776;40.400;17.260;2022-11-15T02:06:59;16.00;;;9.13;;
52946;SDS011;45776;40.400;17.260;2022-11-15T02:09:24;13.90;;;8.60;;
52946;SDS011;45776;40.400;17.260;2022-11-15T02:11:50;17.45;;;9.50;;
52946;SDS011;45776;40.400;17.260;2022-11-15T02:14:17;16.90;;;9.27;;
52946;SDS011;45776;40.400;17.260;2022-11-15T02:22:10;15.35;;;9.38;;
52946;SDS011;45776;40.400;17.260;2022-11-15T02:27:12;14.10;;;7.88;;
52946;SDS011;45776;40.400;17.260;2022-11-15T02:32:13;13.52;;;8.38;;
52946;SDS011;45776;40.400;17.260;2022-11-15T02:34:46;14.25;;;7.75;;
52946;SDS011;45776;40.400;17.260;2022-11-15T02:37:16;13.38;;;7.10;;
52946;SDS011;45776;40.400;17.260;2022-11-15T02:39:54;13.25;;;7.38;;
52946;SDS011;45776;40.400;17.260;2022-11-15T02:42:25;16.23;;;7.63;;
52946;SDS011;45776;40.400;17.260;2022-11-15T02:45:10;11.95;;;8.00;;
52946;SDS011;45776;40.400;17.260;2022-11-15T02:47:39;9.48;;;6.53;;
52946;SDS011;45776;40.400;17.260;2022-11-15T02:50:07;9.93;;;6.72;;
52946;SDS011;45776;40.400;17.260;2022-11-15T02:52:33;11.70;;;6.85;;
52946;SDS011;45776;40.400;17.260;2022-11-15T02:54:59;12.52;;;6.35;;
52946;SDS011;45776;40.400;17.260;2022-11-15T03:11:00;11.23;;;7.93;;
52946;SDS011;45776;40.400;17.260;2022-11-15T03:15:31;17.42;;;7.72;;
52946;SDS011;45776;40.400;17.260;2022-11-15T03:18:02;15.25;;;7.82;;
52946;SDS011;45776;40.400;17.260;2022-11-15T03:20:28;12.10;;;5.97;;
52946;SDS011;45776;40.400;17.260;2022-11-15T03:22:55;11.40;;;5.88;;
52946;SDS011;45776;40.400;17.260;2022-11-15T03:25:22;7.45;;;5.40;;
52946;SDS011;45776;40.400;17.260;2022-11-15T03:27:52;12.93;;;6.95;;
52946;SDS011;45776;40.400;17.260;2022-11-15T03:30:18;10.32;;;6.00;;
52946;SDS011;45776;40.400;17.260;2022-11-15T03:32:48;13.10;;;5.25;;
52946;SDS011;45776;40.400;17.260;2022-11-15T03:35:22;9.10;;;6.00;;
52946;SDS011;45776;40.400;17.260;2022-11-15T03:40:13;9.18;;;5.35;;
52946;SDS011;45776;40.400;17.260;2022-11-15T03:42:42;10.95;;;6.20;;
52946;SDS011;45776;40.400;17.260;2022-11-15T03:45:19;9.68;;;5.70;;
52946;SDS011;45776;40.400;17.260;2022-11-15T03:47:54;10.52;;;5.35;;
52946;SDS011;45776;40.400;17.260;2022-11-15T03:50:23;8.45;;;5.53;;
52946;SDS011;45776;40.400;17.260;2022-11-15T03:52:49;9.05;;;5.55;;
52946;SDS011;45776;40.400;17.260;2022-11-15T03:55:16;7.65;;;4.40;;
52946;SDS011;45776;40.400;17.260;2022-11-15T03:57:42;9.02;;;4.50;;
52946;SDS011;45776;40.400;17.260;2022-11-15T04:00:08;9.27;;;4.85;;
52946;SDS011;45776;40.400;17.260;2022-11-15T04:02:33;10.13;;;5.65;;
52946;SDS011;45776;40.400;17.260;2022-11-15T04:04:58;9.10;;;5.78;;
52946;SDS011;45776;40.400;17.260;2022-11-15T04:07:24;9.35;;;5.78;;
52946;SDS011;45776;40.400;17.260;2022-11-15T04:09:49;9.35;;;6.00;;
52946;SDS011;45776;40.400;17.260;2022-11-15T04:12:27;7.78;;;4.75;;
52946;SDS011;45776;40.400;17.260;2022-11-15T04:14:56;8.13;;;5.20;;
52946;SDS011;45776;40.400;17.260;2022-11-15T04:17:55;10.18;;;5.60;;
52946;SDS011;45776;40.400;17.260;2022-11-15T04:20:20;9.52;;;5.45;;
52946;SDS011;45776;40.400;17.260;2022-11-15T04:23:06;9.10;;;5.32;;
52946;SDS011;45776;40.400;17.260;2022-11-15T04:25:50;9.00;;;5.40;;
52946;SDS011;45776;40.400;17.260;2022-11-15T04:28:16;9.93;;;5.63;;
52946;SDS011;45776;40.400;17.260;2022-11-15T04:30:42;9.40;;;5.72;;
52946;SDS011;45776;40.400;17.260;2022-11-15T04:33:07;9.10;;;5.97;;
52946;SDS011;45776;40.400;17.260;2022-11-15T04:35:32;9.48;;;5.60;;
52946;SDS011;45776;40.400;17.260;2022-11-15T04:37:58;9.75;;;5.55;;
52946;SDS011;45776;40.400;17.260;2022-11-15T04:40:23;8.95;;;6.20;;
52946;SDS011;45776;40.400;17.260;2022-11-15T04:42:49;9.85;;;5.68;;
52946;SDS011;45776;40.400;17.260;2022-11-15T04:45:14;10.20;;;5.97;;
52946;SDS011;45776;40.400;17.260;2022-11-15T04:47:39;8.27;;;5.72;;
52946;SDS011;45776;40.400;17.260;2022-11-15T04:50:04;9.75;;;5.90;;
52946;SDS011;45776;40.400;17.260;2022-11-15T04:52:30;9.10;;;5.43;;
52946;SDS011;45776;40.400;17.260;2022-11-15T04:54:55;8.85;;;5.20;;
52946;SDS011;45776;40.400;17.260;2022-11-15T04:57:20;6.25;;;3.75;;
52946;SDS011;45776;40.400;17.260;2022-11-15T04:59:46;7.45;;;5.05;;
52946;SDS011;45776;40.400;17.260;2022-11-15T05:02:11;7.57;;;5.00;;
52946;SDS011;45776;40.400;17.260;2022-11-15T05:04:37;8.50;;;4.75;;
52946;SDS011;45776;40.400;17.260;2022-11-15T05:07:02;7.25;;;4.72;;
52946;SDS011;45776;40.400;17.260;2022-11-15T05:09:29;7.88;;;4.75;;
52946;SDS011;45776;40.400;17.260;2022-11-15T05:11:54;7.20;;;4.28;;
52946;SDS011;45776;40.400;17.260;2022-11-15T05:14:19;9.00;;;4.70;;
52946;SDS011;45776;40.400;17.260;2022-11-15T05:16:45;10.60;;;4.38;;
52946;SDS011;45776;40.400;17.260;2022-11-15T05:19:10;7.22;;;4.25;;
52946;SDS011;45776;40.400;17.260;2022-11-15T05:21:35;7.88;;;3.97;;
52946;SDS011;45776;40.400;17.260;2022-11-15T05:24:01;9.45;;;3.55;;
52946;SDS011;45776;40.400;17.260;2022-11-15T05:26:27;9.57;;;4.28;;
52946;SDS011;45776;40.400;17.260;2022-11-15T05:28:56;7.90;;;4.15;;
52946;SDS011;45776;40.400;17.260;2022-11-15T05:31:22;8.40;;;3.90;;
52946;SDS011;45776;40.400;17.260;2022-11-15T05:33:48;8.38;;;4.18;;
52946;SDS011;45776;40.400;17.260;2022-11-15T05:38:39;6.53;;;3.80;;
52946;SDS011;45776;40.400;17.260;2022-11-15T05:41:04;6.78;;;4.15;;
52946;SDS011;45776;40.400;17.260;2022-11-15T05:43:30;11.32;;;4.50;;
52946;SDS011;45776;40.400;17.260;2022-11-15T05:45:56;10.60;;;4.45;;
52946;SDS011;45776;40.400;17.260;2022-11-15T05:48:22;14.35;;;7.15;;
52946;SDS011;45776;40.400;17.260;2022-11-15T05:50:48;15.48;;;6.40;;
52946;SDS011;45776;40.400;17.260;2022-11-15T05:53:14;9.32;;;4.60;;
52946;SDS011;45776;40.400;17.260;2022-11-15T05:55:41;14.05;;;4.07;;
52946;SDS011;45776;40.400;17.260;2022-11-15T05:58:06;7.90;;;4.40;;
52946;SDS011;45776;40.400;17.260;2022-11-15T06:00:32;6.72;;;3.47;;
52946;SDS011;45776;40.400;17.260;2022-11-15T06:02:57;8.45;;;3.75;;
52946;SDS011;45776;40.400;17.260;2022-11-15T06:05:22;8.13;;;3.72;;
52946;SDS011;45776;40.400;17.260;2022-11-15T06:07:48;6.07;;;3.00;;
52946;SDS011;45776;40.400;17.260;2022-11-15T06:10:13;9.45;;;3.67;;
52946;SDS011;45776;40.400;17.260;2022-11-15T06:12:39;9.18;;;3.35;;
52946;SDS011;45776;40.400;17.260;2022-11-15T06:15:04;8.45;;;3.45;;
52946;SDS011;45776;40.400;17.260;2022-11-15T06:17:29;8.60;;;3.20;;
52946;SDS011;45776;40.400;17.260;2022-11-15T06:19:55;32.90;;;15.32;;
52946;SDS011;45776;40.400;17.260;2022-11-15T06:22:20;107.03;;;44.92;;
52946;SDS011;45776;40.400;17.260;2022-11-15T06:24:45;22.48;;;10.25;;
52946;SDS011;45776;40.400;17.260;2022-11-15T06:27:11;9.43;;;4.55;;
52946;SDS011;45776;40.400;17.260;2022-11-15T06:29:37;5.20;;;3.70;;
52946;SDS011;45776;40.400;17.260;2022-11-15T06:32:02;7.03;;;4.13;;
52946;SDS011;45776;40.400;17.260;2022-11-15T06:34:27;9.70;;;4.10;;
52946;SDS011;45776;40.400;17.260;2022-11-15T06:36:53;7.47;;;4.30;;
52946;SDS011;45776;40.400;17.260;2022-11-15T06:39:18;9.23;;;3.60;;
52946;SDS011;45776;40.400;17.260;2022-11-15T06:41:43;7.13;;;4.18;;
52946;SDS011;45776;40.400;17.260;2022-11-15T06:44:09;6.43;;;3.40;;
52946;SDS011;45776;40.400;17.260;2022-11-15T06:46:34;7.72;;;3.75;;
52946;SDS011;45776;40.400;17.260;2022-11-15T06:48:59;6.50;;;3.50;;
52946;SDS011;45776;40.400;17.260;2022-11-15T06:51:24;5.72;;;3.40;;
52946;SDS011;45776;40.400;17.260;2022-11-15T06:53:50;7.65;;;3.35;;
52946;SDS011;45776;40.400;17.260;2022-11-15T06:56:15;5.75;;;3.47;;
52946;SDS011;45776;40.400;17.260;2022-11-15T06:58:40;6.15;;;3.55;;
52946;SDS011;45776;40.400;17.260;2022-11-15T07:01:10;6.25;;;3.20;;
52946;SDS011;45776;40.400;17.260;2022-11-15T07:03:36;3.75;;;2.88;;
52946;SDS011;45776;40.400;17.260;2022-11-15T07:06:02;5.30;;;2.90;;
52946;SDS011;45776;40.400;17.260;2022-11-15T07:08:27;4.35;;;2.83;;
52946;SDS011;45776;40.400;17.260;2022-11-15T07:10:53;5.70;;;2.92;;
52946;SDS011;45776;40.400;17.260;2022-11-15T07:13:19;5.57;;;2.97;;
52946;SDS011;45776;40.400;17.260;2022-11-15T07:15:44;3.63;;;2.88;;
52946;SDS011;45776;40.400;17.260;2022-11-15T07:18:09;5.82;;;2.95;;
52946;SDS011;45776;40.400;17.260;2022-11-15T07:20:35;6.13;;;3.03;;
52946;SDS011;45776;40.400;17.260;2022-11-15T07:23:00;4.38;;;3.00;;
52946;SDS011;45776;40.400;17.260;2022-11-15T07:25:27;4.65;;;2.70;;
52946;SDS011;45776;40.400;17.260;2022-11-15T07:27:55;5.85;;;3.05;;
52946;SDS011;45776;40.400;17.260;2022-11-15T07:30:21;6.18;;;3.05;;
52946;SDS011;45776;40.400;17.260;2022-11-15T07:32:46;4.20;;;3.15;;
52946;SDS011;45776;40.400;17.260;2022-11-15T07:35:11;5.57;;;3.00;;
52946;SDS011;45776;40.400;17.260;2022-11-15T07:37:37;7.63;;;3.25;;
52946;SDS011;45776;40.400;17.260;2022-11-15T07:40:02;6.78;;;3.58;;
52946;SDS011;45776;40.400;17.260;2022-11-15T07:42:28;5.40;;;2.90;;
52946;SDS011;45776;40.400;17.260;2022-11-15T07:45:14;5.55;;;2.90;;
52946;SDS011;45776;40.400;17.260;2022-11-15T07:47:39;6.03;;;3.22;;
52946;SDS011;45776;40.400;17.260;2022-11-15T07:50:05;3.53;;;2.63;;
52946;SDS011;45776;40.400;17.260;2022-11-15T07:52:30;5.03;;;2.75;;
52946;SDS011;45776;40.400;17.260;2022-11-15T07:54:55;6.72;;;2.78;;
52946;SDS011;45776;40.400;17.260;2022-11-15T07:57:21;4.90;;;2.60;;
52946;SDS011;45776;40.400;17.260;2022-11-15T07:59:46;5.80;;;2.80;;
52946;SDS011;45776;40.400;17.260;2022-11-15T08:02:11;4.45;;;2.88;;
52946;SDS011;45776;40.400;17.260;2022-11-15T08:04:37;4.80;;;2.92;;
52946;SDS011;45776;40.400;17.260;2022-11-15T08:07:02;8.50;;;2.72;;
52946;SDS011;45776;40.400;17.260;2022-11-15T08:09:27;7.68;;;2.65;;
52946;SDS011;45776;40.400;17.260;2022-11-15T08:11:52;8.40;;;3.05;;
52946;SDS011;45776;40.400;17.260;2022-11-15T08:14:18;6.25;;;2.92;;
52946;SDS011;45776;40.400;17.260;2022-11-15T08:16:43;7.03;;;3.20;;
52946;SDS011;45776;40.400;17.260;2022-11-15T08:19:08;5.05;;;2.70;;
52946;SDS011;45776;40.400;17.260;2022-11-15T08:21:34;5.70;;;2.75;;
52946;SDS011;45776;40.400;17.260;2022-11-15T08:24:00;7.93;;;2.97;;
52946;SDS011;45776;40.400;17.260;2022-11-15T08:26:25;4.97;;;2.92;;
52946;SDS011;45776;40.400;17.260;2022-11-15T08:28:54;5.75;;;2.85;;
52946;SDS011;45776;40.400;17.260;2022-11-15T08:31:19;5.07;;;2.75;;
52946;SDS011;45776;40.400;17.260;2022-11-15T08:33:44;6.97;;;2.67;;
52946;SDS011;45776;40.400;17.260;2022-11-15T08:36:13;5.60;;;2.60;;
52946;SDS011;45776;40.400;17.260;2022-11-15T08:38:39;4.57;;;2.13;;
52946;SDS011;45776;40.400;17.260;2022-11-15T08:41:04;5.10;;;2.28;;
52946;SDS011;45776;40.400;17.260;2022-11-15T08:43:31;3.58;;;2.33;;
52946;SDS011;45776;40.400;17.260;2022-11-15T08:45:56;7.28;;;2.33;;
52946;SDS011;45776;40.400;17.260;2022-11-15T08:48:22;4.43;;;2.15;;
52946;SDS011;45776;40.400;17.260;2022-11-15T08:50:47;5.18;;;2.30;;
52946;SDS011;45776;40.400;17.260;2022-11-15T08:53:13;4.93;;;2.10;;
52946;SDS011;45776;40.400;17.260;2022-11-15T08:55:39;3.78;;;2.28;;
52946;SDS011;45776;40.400;17.260;2022-11-15T08:58:05;4.25;;;2.30;;
52946;SDS011;45776;40.400;17.260;2022-11-15T09:00:30;5.25;;;2.53;;
52946;SDS011;45776;40.400;17.260;2022-11-15T09:02:56;6.18;;;2.45;;
52946;SDS011;45776;40.400;17.260;2022-11-15T09:05:21;3.70;;;1.80;;
52946;SDS011;45776;40.400;17.260;2022-11-15T09:07:46;2.88;;;2.17;;
52946;SDS011;45776;40.400;17.260;2022-11-15T09:10:12;3.88;;;2.38;;
52946;SDS011;45776;40.400;17.260;2022-11-15T09:12:37;7.18;;;2.30;;
52946;SDS011;45776;40.400;17.260;2022-11-15T09:15:03;5.32;;;2.20;;
52946;SDS011;45776;40.400;17.260;2022-11-15T09:17:28;5.03;;;2.35;;
52946;SDS011;45776;40.400;17.260;2022-11-15T09:19:54;5.32;;;2.10;;
52946;SDS011;45776;40.400;17.260;2022-11-15T09:22:19;3.97;;;2.30;;
52946;SDS011;45776;40.400;17.260;2022-11-15T09:24:44;8.50;;;2.22;;
52946;SDS011;45776;40.400;17.260;2022-11-15T09:27:10;4.00;;;2.38;;
52946;SDS011;45776;40.400;17.260;2022-11-15T09:29:35;6.22;;;2.40;;
52946;SDS011;45776;40.400;17.260;2022-11-15T09:32:01;5.35;;;2.58;;
52946;SDS011;45776;40.400;17.260;2022-11-15T09:34:26;3.08;;;1.83;;
52946;SDS011;45776;40.400;17.260;2022-11-15T09:36:51;5.05;;;2.08;;
52946;SDS011;45776;40.400;17.260;2022-11-15T09:39:17;5.80;;;2.30;;
52946;SDS011;45776;40.400;17.260;2022-11-15T09:42:31;4.65;;;2.05;;
52946;SDS011;45776;40.400;17.260;2022-11-15T09:49:56;4.40;;;1.88;;
52946;SDS011;45776;40.400;17.260;2022-11-15T09:52:23;3.42;;;1.92;;
52946;SDS011;45776;40.400;17.260;2022-11-15T09:54:49;4.45;;;1.88;;
52946;SDS011;45776;40.400;17.260;2022-11-15T09:57:18;3.30;;;1.80;;
52946;SDS011;45776;40.400;17.260;2022-11-15T10:02:22;5.10;;;1.73;;
52946;SDS011;45776;40.400;17.260;2022-11-15T10:04:48;5.65;;;2.83;;
52946;SDS011;45776;40.400;17.260;2022-11-15T10:07:58;3.55;;;1.70;;
52946;SDS011;45776;40.400;17.260;2022-11-15T10:12:44;4.07;;;1.90;;
52946;SDS011;45776;40.400;17.260;2022-11-15T10:15:14;3.25;;;2.05;;
52946;SDS011;45776;40.400;17.260;2022-11-15T10:20:20;3.58;;;1.92;;
52946;SDS011;45776;40.400;17.260;2022-11-15T10:22:46;5.72;;;1.85;;
52946;SDS011;45776;40.400;17.260;2022-11-15T10:27:40;5.03;;;1.90;;
52946;SDS011;45776;40.400;17.260;2022-11-15T10:30:11;2.25;;;1.40;;
52946;SDS011;45776;40.400;17.260;2022-11-15T10:32:36;2.60;;;1.30;;
52946;SDS011;45776;40.400;17.260;2022-11-15T10:35:15;3.88;;;1.35;;
52946;SDS011;45776;40.400;17.260;2022-11-15T10:37:44;2.92;;;1.25;;
52946;SDS011;45776;40.400;17.260;2022-11-15T10:42:40;1.95;;;1.35;;
52946;SDS011;45776;40.400;17.260;2022-11-15T10:45:25;2.97;;;1.45;;
52946;SDS011;45776;40.400;17.260;2022-11-15T10:47:51;3.03;;;1.40;;
52946;SDS011;45776;40.400;17.260;2022-11-15T10:50:27;1.95;;;0.90;;
52946;SDS011;45776;40.400;17.260;2022-11-15T10:52:53;2.22;;;1.05;;
52946;SDS011;45776;40.400;17.260;2022-11-15T10:55:25;2.25;;;1.15;;
52946;SDS011;45776;40.400;17.260;2022-11-15T10:57:53;3.25;;;1.50;;
52946;SDS011;45776;40.400;17.260;2022-11-15T11:05:26;3.30;;;1.42;;
52946;SDS011;45776;40.400;17.260;2022-11-15T11:08:09;6.45;;;1.92;;
52946;SDS011;45776;40.400;17.260;2022-11-15T11:11:02;5.25;;;1.90;;
52946;SDS011;45776;40.400;17.260;2022-11-15T11:13:32;3.40;;;1.95;;
52946;SDS011;45776;40.400;17.260;2022-11-15T11:21:25;4.10;;;1.90;;
52946;SDS011;45776;40.400;17.260;2022-11-15T11:23:52;3.25;;;1.90;;
52946;SDS011;45776;40.400;17.260;2022-11-15T11:36:38;3.40;;;1.17;;
52946;SDS011;45776;40.400;17.260;2022-11-15T11:47:15;3.47;;;1.50;;
52946;SDS011;45776;40.400;17.260;2022-11-15T11:52:30;5.22;;;1.90;;
52946;SDS011;45776;40.400;17.260;2022-11-15T11:57:25;6.45;;;2.25;;
52946;SDS011;45776;40.400;17.260;2022-11-15T11:59:54;3.85;;;1.85;;
52946;SDS011;45776;40.400;17.260;2022-11-15T12:02:27;4.80;;;2.05;;
52946;SDS011;45776;40.400;17.260;2022-11-15T12:07:25;3.70;;;1.50;;
52946;SDS011;45776;40.400;17.260;2022-11-15T12:10:28;1.73;;;1.02;;
52946;SDS011;45776;40.400;17.260;2022-11-15T12:13:02;2.30;;;1.35;;
52946;SDS011;45776;40.400;17.260;2022-11-15T12:15:50;1.20;;;1.08;;
52946;SDS011;45776;40.400;17.260;2022-11-15T12:18:17;2.58;;;1.00;;
52946;SDS011;45776;40.400;17.260;2022-11-15T12:20:50;1.98;;;1.00;;
52946;SDS011;45776;40.400;17.260;2022-11-15T12:23:19;2.92;;;1.05;;
52946;SDS011;45776;40.400;17.260;2022-11-15T12:30:55;1.92;;;1.40;;
52946;SDS011;45776;40.400;17.260;2022-11-15T12:33:32;4.22;;;1.42;;
52946;SDS011;45776;40.400;17.260;2022-11-15T12:35:59;3.15;;;1.20;;
52946;SDS011;45776;40.400;17.260;2022-11-15T12:41:12;4.47;;;1.60;;
52946;SDS011;45776;40.400;17.260;2022-11-15T12:43:39;1.50;;;1.00;;
52946;SDS011;45776;40.400;17.260;2022-11-15T12:46:05;2.63;;;1.20;;
52946;SDS011;45776;40.400;17.260;2022-11-15T12:51:02;4.65;;;1.30;;
52946;SDS011;45776;40.400;17.260;2022-11-15T13:06:40;3.55;;;1.10;;
52946;SDS011;45776;40.400;17.260;2022-11-15T13:11:51;3.55;;;0.90;;
52946;SDS011;45776;40.400;17.260;2022-11-15T13:17:00;1.40;;;1.02;;
52946;SDS011;45776;40.400;17.260;2022-11-15T13:19:26;2.60;;;1.10;;
52946;SDS011;45776;40.400;17.260;2022-11-15T13:21:51;1.75;;;1.10;;
52946;SDS011;45776;40.400;17.260;2022-11-15T13:24:37;2.45;;;1.02;;
52946;SDS011;45776;40.400;17.260;2022-11-15T13:27:10;1.73;;;0.90;;
52946;SDS011;45776;40.400;17.260;2022-11-15T13:29:36;1.75;;;0.90;;
52946;SDS011;45776;40.400;17.260;2022-11-15T13:32:01;1.50;;;1.20;;
52946;SDS011;45776;40.400;17.260;2022-11-15T13:34:30;1.65;;;0.88;;
52946;SDS011;45776;40.400;17.260;2022-11-15T13:37:01;1.98;;;1.35;;
52946;SDS011;45776;40.400;17.260;2022-11-15T13:39:28;9.20;;;3.67;;
52946;SDS011;45776;40.400;17.260;2022-11-15T13:41:54;1.73;;;1.25;;
52946;SDS011;45776;40.400;17.260;2022-11-15T13:44:20;2.25;;;0.93;;
52946;SDS011;45776;40.400;17.260;2022-11-15T13:46:46;1.73;;;0.82;;
52946;SDS011;45776;40.400;17.260;2022-11-15T13:49:11;2.22;;;1.10;;
52946;SDS011;45776;40.400;17.260;2022-11-15T13:51:38;1.85;;;0.95;;
52946;SDS011;45776;40.400;17.260;2022-11-15T13:59:47;4.30;;;1.15;;
52946;SDS011;45776;40.400;17.260;2022-11-15T14:02:15;3.38;;;0.80;;
52946;SDS011;45776;40.400;17.260;2022-11-15T14:04:51;2.70;;;0.82;;
52946;SDS011;45776;40.400;17.260;2022-11-15T14:07:18;1.00;;;0.90;;
52946;SDS011;45776;40.400;17.260;2022-11-15T14:09:44;2.85;;;0.90;;
52946;SDS011;45776;40.400;17.260;2022-11-15T14:14:46;4.07;;;0.70;;
52946;SDS011;45776;40.400;17.260;2022-11-15T14:19:55;3.47;;;0.90;;
52946;SDS011;45776;40.400;17.260;2022-11-15T14:22:21;3.15;;;1.00;;
52946;SDS011;45776;40.400;17.260;2022-11-15T14:27:37;8.82;;;4.07;;
52946;SDS011;45776;40.400;17.260;2022-11-15T14:30:03;2.10;;;1.20;;
52946;SDS011;45776;40.400;17.260;2022-11-15T14:32:45;2.05;;;1.10;;
52946;SDS011;45776;40.400;17.260;2022-11-15T14:35:13;2.20;;;0.90;;
52946;SDS011;45776;40.400;17.260;2022-11-15T14:37:48;2.17;;;0.95;;
52946;SDS011;45776;40.400;17.260;2022-11-15T14:40:15;1.05;;;0.70;;
52946;SDS011;45776;40.400;17.260;2022-11-15T14:42:47;2.03;;;1.30;;
52946;SDS011;45776;40.400;17.260;2022-11-15T14:45:17;3.45;;;1.45;;
52946;SDS011;45776;40.400;17.260;2022-11-15T14:47:43;2.83;;;0.80;;
52946;SDS011;45776;40.400;17.260;2022-11-15T14:50:12;1.23;;;0.90;;
52946;SDS011;45776;40.400;17.260;2022-11-15T14:52:37;1.55;;;0.75;;
52946;SDS011;45776;40.400;17.260;2022-11-15T14:55:08;2.15;;;1.10;;
52946;SDS011;45776;40.400;17.260;2022-11-15T15:00:00;2.00;;;0.83;;
52946;SDS011;45776;40.400;17.260;2022-11-15T15:02:26;2.75;;;1.50;;
52946;SDS011;45776;40.400;17.260;2022-11-15T15:04:52;2.67;;;1.45;;
52946;SDS011;45776;40.400;17.260;2022-11-15T15:07:17;2.08;;;1.00;;
52946;SDS011;45776;40.400;17.260;2022-11-15T15:09:43;2.13;;;1.20;;
52946;SDS011;45776;40.400;17.260;2022-11-15T15:12:12;2.75;;;0.70;;
52946;SDS011;45776;40.400;17.260;2022-11-15T15:14:39;2.92;;;0.90;;
52946;SDS011;45776;40.400;17.260;2022-11-15T15:17:04;1.50;;;0.90;;
52946;SDS011;45776;40.400;17.260;2022-11-15T15:19:29;5.40;;;2.10;;
52946;SDS011;45776;40.400;17.260;2022-11-15T15:21:55;5.13;;;2.83;;
52946;SDS011;45776;40.400;17.260;2022-11-15T15:24:20;2.15;;;0.80;;
52946;SDS011;45776;40.400;17.260;2022-11-15T15:26:45;4.75;;;1.10;;
52946;SDS011;45776;40.400;17.260;2022-11-15T15:29:11;2.08;;;1.10;;
52946;SDS011;45776;40.400;17.260;2022-11-15T15:31:36;1.92;;;1.10;;
52946;SDS011;45776;40.400;17.260;2022-11-15T15:34:04;2.65;;;0.90;;
52946;SDS011;45776;40.400;17.260;2022-11-15T15:36:29;3.60;;;2.17;;
52946;SDS011;45776;40.400;17.260;2022-11-15T15:38:54;1.70;;;0.95;;
52946;SDS011;45776;40.400;17.260;2022-11-15T15:41:20;1.48;;;1.15;;
52946;SDS011;45776;40.400;17.260;2022-11-15T15:43:46;3.70;;;1.40;;
52946;SDS011;45776;40.400;17.260;2022-11-15T15:46:14;1.05;;;0.90;;
52946;SDS011;45776;40.400;17.260;2022-11-15T15:48:39;3.17;;;1.80;;
52946;SDS011;45776;40.400;17.260;2022-11-15T15:51:05;2.97;;;1.00;;
52946;SDS011;45776;40.400;17.260;2022-11-15T15:53:31;2.97;;;0.80;;
52946;SDS011;45776;40.400;17.260;2022-11-15T15:55:56;1.23;;;1.00;;
52946;SDS011;45776;40.400;17.260;2022-11-15T15:58:21;4.68;;;1.80;;
52946;SDS011;45776;40.400;17.260;2022-11-15T16:00:47;3.53;;;0.80;;
52946;SDS011;45776;40.400;17.260;2022-11-15T16:03:12;1.33;;;1.10;;
52946;SDS011;45776;40.400;17.260;2022-11-15T16:05:37;2.58;;;1.08;;
52946;SDS011;45776;40.400;17.260;2022-11-15T16:08:03;2.03;;;0.90;;
52946;SDS011;45776;40.400;17.260;2022-11-15T16:10:30;3.92;;;1.17;;
52946;SDS011;45776;40.400;17.260;2022-11-15T16:12:56;1.75;;;1.10;;
52946;SDS011;45776;40.400;17.260;2022-11-15T16:15:22;1.58;;;1.10;;
52946;SDS011;45776;40.400;17.260;2022-11-15T16:17:54;1.92;;;0.95;;
52946;SDS011;45776;40.400;17.260;2022-11-15T16:20:26;3.60;;;0.80;;
52946;SDS011;45776;40.400;17.260;2022-11-15T16:22:54;1.60;;;1.10;;
52946;SDS011;45776;40.400;17.260;2022-11-15T16:25:19;2.38;;;1.20;;
52946;SDS011;45776;40.400;17.260;2022-11-15T16:27:44;3.30;;;1.58;;
52946;SDS011;45776;40.400;17.260;2022-11-15T16:30:14;2.35;;;1.10;;
52946;SDS011;45776;40.400;17.260;2022-11-15T16:32:40;1.80;;;1.10;;
52946;SDS011;45776;40.400;17.260;2022-11-15T16:35:05;2.42;;;1.10;;
52946;SDS011;45776;40.400;17.260;2022-11-15T16:37:31;3.33;;;0.80;;
52946;SDS011;45776;40.400;17.260;2022-11-15T16:39:56;1.00;;;0.85;;
52946;SDS011;45776;40.400;17.260;2022-11-15T16:42:21;2.20;;;0.90;;
52946;SDS011;45776;40.400;17.260;2022-11-15T16:44:47;2.05;;;0.82;;